Time;durP1;ratioP1;P1;durP2;ratioP2;P2;SDS_P1;SDS_P2;PMS_P1;PMS_P2;Temp;Humidity;BMP_temperature;BMP_pressure;BME280_temperature;BME280_humidity;BME280_pressure;Samples;Min_cycle;Max_cycle;Signal;HPM_P1;HPM_P2
2023/10/02 00:02:43;;;;;;;18.75;7.40;;;;;;;;;;6096148;23;20182;-93
2023/10/02 00:05:51;;;;;;;17.48;6.72;;;;;;;;;;6096895;23;20169;-92
2023/10/02 00:08:57;;;;;;;20.83;7.53;;;;;;;;;;6094958;23;20652;-93
2023/10/02 00:12:11;;;;;;;21.10;7.40;;;;;;;;;;6095520;23;20231;-93
2023/10/02 00:15:15;;;;;;;20.80;6.95;;;;;;;;;;6094750;23;20153;-91
2023/10/02 00:18:22;;;;;;;20.70;7.57;;;;;;;;;;6111871;23;20174;-93
2023/10/02 00:21:28;;;;;;;21.70;7.55;;;;;;;;;;6096110;23;20174;-93
2023/10/02 00:24:35;;;;;;;18.20;7.53;;;;;;;;;;6094768;23;20246;-93
2023/10/02 00:27:48;;;;;;;18.42;6.93;;;;;;;;;;6111558;23;20211;-91
2023/10/02 00:30:53;;;;;;;20.33;6.97;;;;;;;;;;6094908;23;20173;-90
2023/10/02 00:33:59;;;;;;;20.10;7.20;;;;;;;;;;6112519;23;20170;-92
2023/10/02 00:37:06;;;;;;;24.98;8.35;;;;;;;;;;6095535;23;20191;-92
2023/10/02 00:40:12;;;;;;;20.95;7.30;;;;;;;;;;6092915;23;20174;-93
2023/10/02 00:43:34;;;;;;;20.77;7.80;;;;;;;;;;6094622;23;20169;-93
2023/10/02 00:46:42;;;;;;;19.90;7.28;;;;;;;;;;6096381;23;20182;-92
2023/10/02 00:50:06;;;;;;;20.73;7.95;;;;;;;;;;6079244;23;20198;-93
2023/10/02 00:53:12;;;;;;;26.23;7.80;;;;;;;;;;6093773;23;20173;-93
2023/10/02 00:56:24;;;;;;;22.65;7.30;;;;;;;;;;6112957;23;20154;-94
2023/10/02 00:59:32;;;;;;;20.25;7.68;;;;;;;;;;6094525;23;20234;-93
2023/10/02 01:02:39;;;;;;;22.92;8.02;;;;;;;;;;6095130;23;20165;-94
2023/10/02 01:05:50;;;;;;;15.80;6.85;;;;;;;;;;6097790;23;20174;-93
2023/10/02 01:08:56;;;;;;;20.75;7.95;;;;;;;;;;6095477;23;20254;-91
2023/10/02 01:12:01;;;;;;;19.42;7.07;;;;;;;;;;6111948;23;20211;-93
2023/10/02 01:15:11;;;;;;;20.00;7.15;;;;;;;;;;6095632;23;20175;-92
2023/10/02 01:18:22;;;;;;;19.48;6.97;;;;;;;;;;6095615;23;20173;-93
2023/10/02 01:21:28;;;;;;;19.67;7.50;;;;;;;;;;6095705;23;20154;-94
2023/10/02 01:24:35;;;;;;;15.77;7.05;;;;;;;;;;6095665;23;20239;-94
2023/10/02 01:27:41;;;;;;;18.48;7.07;;;;;;;;;;6095427;23;20165;-90
2023/10/02 01:30:47;;;;;;;20.88;6.75;;;;;;;;;;6095194;23;20196;-91
2023/10/02 01:33:54;;;;;;;19.92;7.30;;;;;;;;;;6094530;23;20283;-91
2023/10/02 01:37:00;;;;;;;20.38;7.20;;;;;;;;;;6093271;23;20199;-94
2023/10/02 01:43:32;;;;;;;19.98;7.72;;;;;;;;;;6093312;23;20199;-94
2023/10/02 01:46:37;;;;;;;19.58;7.70;;;;;;;;;;6093549;23;20173;-93
2023/10/02 01:49:42;;;;;;;19.88;7.22;;;;;;;;;;6092426;23;20292;-95
2023/10/02 01:52:48;;;;;;;21.23;7.40;;;;;;;;;;6096038;23;20170;-95
2023/10/02 01:56:00;;;;;;;20.90;7.38;;;;;;;;;;6110138;23;20658;-94
2023/10/02 01:59:09;;;;;;;21.30;7.68;;;;;;;;;;6096219;23;20178;-94
2023/10/02 02:02:15;;;;;;;16.63;7.40;;;;;;;;;;6096011;23;20174;-93
2023/10/02 02:05:20;;;;;;;20.13;7.50;;;;;;;;;;6095246;23;20170;-96
2023/10/02 02:08:26;;;;;;;19.90;7.43;;;;;;;;;;6095676;23;20170;-95
2023/10/02 02:11:34;;;;;;;20.70;8.02;;;;;;;;;;6095511;23;20178;-94
2023/10/02 02:14:49;;;;;;;19.08;7.75;;;;;;;;;;6097399;23;20195;-94
2023/10/02 02:17:57;;;;;;;19.92;7.45;;;;;;;;;;6094105;23;20166;-93
2023/10/02 02:21:04;;;;;;;18.73;7.80;;;;;;;;;;6095139;23;20254;-94
2023/10/02 02:24:11;;;;;;;21.10;7.40;;;;;;;;;;6111706;23;20298;-92
2023/10/02 02:27:19;;;;;;;22.17;8.35;;;;;;;;;;6096019;23;20653;-92
2023/10/02 02:30:25;;;;;;;20.70;8.18;;;;;;;;;;6094679;23;20213;-94
2023/10/02 02:33:38;;;;;;;20.13;8.30;;;;;;;;;;6093696;23;20154;-91
2023/10/02 02:36:46;;;;;;;18.35;7.53;;;;;;;;;;6094843;23;20247;-94
2023/10/02 02:39:52;;;;;;;19.20;7.75;;;;;;;;;;6094720;23;20230;-94
2023/10/02 02:43:10;;;;;;;25.20;8.07;;;;;;;;;;6093987;23;20170;-91
2023/10/02 02:46:17;;;;;;;25.08;7.45;;;;;;;;;;6095874;23;20158;-91
2023/10/02 02:49:25;;;;;;;19.20;6.82;;;;;;;;;;6095504;23;20197;-94
2023/10/02 02:52:32;;;;;;;21.30;7.82;;;;;;;;;;6094209;23;20170;-92
2023/10/02 02:55:37;;;;;;;18.80;7.70;;;;;;;;;;6094970;23;20290;-92
2023/10/02 02:58:45;;;;;;;15.68;7.10;;;;;;;;;;6094812;23;20170;-91
2023/10/02 03:02:08;;;;;;;21.05;7.60;;;;;;;;;;6094629;23;20177;-92
2023/10/02 03:05:14;;;;;;;20.75;7.40;;;;;;;;;;6077003;23;20215;-92
2023/10/02 03:08:22;;;;;;;19.45;7.57;;;;;;;;;;6094094;23;20191;-94
2023/10/02 03:11:28;;;;;;;20.83;8.15;;;;;;;;;;6094578;23;20231;-92
2023/10/02 03:14:36;;;;;;;19.15;7.70;;;;;;;;;;6093824;23;20169;-94
2023/10/02 03:17:43;;;;;;;20.02;7.00;;;;;;;;;;6093546;23;20153;-93
2023/10/02 03:20:49;;;;;;;20.88;7.72;;;;;;;;;;6093696;23;20222;-89
2023/10/02 03:23:58;;;;;;;21.83;7.70;;;;;;;;;;6094436;23;20166;-93
2023/10/02 03:27:04;;;;;;;24.83;8.40;;;;;;;;;;6094238;23;20178;-93
2023/10/02 03:30:35;;;;;;;20.50;7.43;;;;;;;;;;6093175;23;20209;-92
2023/10/02 03:33:38;;;;;;;26.75;8.43;;;;;;;;;;6092893;23;20168;-92
2023/10/02 03:36:43;;;;;;;24.48;8.85;;;;;;;;;;6094522;23;20239;-93
2023/10/02 03:39:59;;;;;;;24.42;8.38;;;;;;;;;;6111934;23;20170;-91
2023/10/02 03:43:18;;;;;;;22.88;8.57;;;;;;;;;;6094377;23;20253;-92
2023/10/02 03:46:35;;;;;;;18.15;7.88;;;;;;;;;;6092063;23;20174;-92
2023/10/02 03:49:42;;;;;;;23.80;8.05;;;;;;;;;;6094325;23;20185;-93
2023/10/02 03:53:12;;;;;;;23.23;8.32;;;;;;;;;;6095322;23;20219;-92
2023/10/02 03:59:53;;;;;;;22.63;8.63;;;;;;;;;;6063856;23;20169;-93
2023/10/02 04:03:05;;;;;;;23.25;8.25;;;;;;;;;;6093266;23;20224;-90
2023/10/02 04:06:10;;;;;;;26.30;8.95;;;;;;;;;;6093741;23;20174;-95
2023/10/02 04:09:21;;;;;;;22.55;8.52;;;;;;;;;;6092160;23;20173;-92
2023/10/02 04:12:26;;;;;;;28.13;9.73;;;;;;;;;;6093873;23;20178;-91
2023/10/02 04:15:32;;;;;;;32.53;9.52;;;;;;;;;;6094008;23;20645;-92
2023/10/02 04:18:45;;;;;;;28.83;10.18;;;;;;;;;;6093531;23;20542;-92
2023/10/02 04:21:56;;;;;;;38.22;10.38;;;;;;;;;;6093642;23;20181;-90
2023/10/02 04:25:03;;;;;;;27.25;10.20;;;;;;;;;;6093939;23;20241;-92
2023/10/02 04:28:12;;;;;;;30.95;8.90;;;;;;;;;;6094480;23;20201;-92
2023/10/02 04:31:21;;;;;;;22.13;8.90;;;;;;;;;;6095081;23;20206;-94
2023/10/02 04:34:31;;;;;;;31.63;9.75;;;;;;;;;;6095715;23;20222;-92
2023/10/02 04:37:36;;;;;;;31.45;9.65;;;;;;;;;;6095181;23;20174;-94
2023/10/02 04:40:49;;;;;;;23.58;8.73;;;;;;;;;;6094601;23;20209;-94
2023/10/02 04:43:57;;;;;;;21.42;9.15;;;;;;;;;;6094439;23;20179;-89
2023/10/02 04:47:02;;;;;;;30.58;10.15;;;;;;;;;;6094262;23;20174;-92
2023/10/02 04:53:34;;;;;;;26.90;9.07;;;;;;;;;;6095210;23;20169;-92
2023/10/02 04:56:46;;;;;;;36.08;9.38;;;;;;;;;;6093287;23;20174;-93
2023/10/02 04:59:54;;;;;;;34.40;9.80;;;;;;;;;;6093440;23;20166;-92
2023/10/02 05:03:24;;;;;;;24.20;9.25;;;;;;;;;;6097211;23;20286;-91
2023/10/02 05:06:44;;;;;;;23.48;8.88;;;;;;;;;;6096150;23;20169;-92
2023/10/02 05:09:49;;;;;;;44.42;9.77;;;;;;;;;;6096032;23;20197;-92
2023/10/02 05:12:53;;;;;;;30.55;10.10;;;;;;;;;;6095511;23;20215;-93
2023/10/02 05:16:14;;;;;;;33.88;9.85;;;;;;;;;;6095228;23;20177;-92
2023/10/02 05:19:56;;;;;;;43.95;10.25;;;;;;;;;;6096216;23;20198;-93
2023/10/02 05:22:58;;;;;;;63.78;10.50;;;;;;;;;;6094525;23;20185;-92
2023/10/02 05:26:04;;;;;;;29.90;9.50;;;;;;;;;;6094050;23;20166;-93
2023/10/02 05:29:12;;;;;;;39.85;9.43;;;;;;;;;;6097976;23;20206;-93
2023/10/02 05:32:19;;;;;;;32.60;9.93;;;;;;;;;;6098047;23;20177;-92
2023/10/02 05:35:24;;;;;;;33.20;10.15;;;;;;;;;;6095996;23;20162;-92
2023/10/02 05:38:35;;;;;;;29.70;9.25;;;;;;;;;;6094844;23;20165;-94
2023/10/02 05:41:44;;;;;;;30.33;10.45;;;;;;;;;;6098027;23;20161;-93
2023/10/02 05:44:52;;;;;;;37.30;10.40;;;;;;;;;;6095616;23;20199;-92
2023/10/02 05:48:01;;;;;;;35.42;9.80;;;;;;;;;;6093822;23;20170;-89
2023/10/02 05:51:12;;;;;;;28.10;9.70;;;;;;;;;;6090797;23;20201;-89
2023/10/02 05:54:23;;;;;;;34.90;10.45;;;;;;;;;;6093862;23;20298;-90
2023/10/02 05:57:31;;;;;;;30.75;10.80;;;;;;;;;;6092384;23;20174;-90
2023/10/02 06:00:38;;;;;;;27.67;9.68;;;;;;;;;;6092966;23;20181;-89
2023/10/02 06:03:43;;;;;;;28.27;9.43;;;;;;;;;;6093560;23;20177;-89
2023/10/02 06:06:50;;;;;;;33.83;9.45;;;;;;;;;;6108067;23;20170;-89
2023/10/02 06:10:00;;;;;;;26.65;9.80;;;;;;;;;;6091927;23;20194;-90
2023/10/02 06:13:06;;;;;;;32.95;10.30;;;;;;;;;;6090852;23;20174;-91
2023/10/02 06:16:11;;;;;;;27.95;10.07;;;;;;;;;;6091580;23;20169;-90
2023/10/02 06:19:17;;;;;;;30.73;10.23;;;;;;;;;;6092307;23;20502;-90
2023/10/02 06:22:23;;;;;;;24.67;9.85;;;;;;;;;;6093962;23;20686;-87
2023/10/02 06:25:29;;;;;;;26.02;9.43;;;;;;;;;;6096215;23;20174;-90
2023/10/02 06:28:35;;;;;;;29.48;10.30;;;;;;;;;;6094453;23;20237;-88
2023/10/02 06:31:42;;;;;;;23.80;9.48;;;;;;;;;;6095622;23;20190;-90
2023/10/02 06:34:50;;;;;;;28.15;11.50;;;;;;;;;;6095841;23;20604;-88
2023/10/02 06:37:56;;;;;;;20.58;9.07;;;;;;;;;;6092538;23;20490;-88
2023/10/02 06:41:08;;;;;;;25.65;9.90;;;;;;;;;;6093468;23;20173;-90
2023/10/02 06:44:18;;;;;;;21.88;9.10;;;;;;;;;;6093830;23;20245;-87
2023/10/02 06:47:24;;;;;;;24.58;9.57;;;;;;;;;;6093912;23;20207;-90
2023/10/02 06:50:31;;;;;;;24.70;9.98;;;;;;;;;;6111152;23;20194;-90
2023/10/02 06:53:40;;;;;;;20.38;9.90;;;;;;;;;;6095157;23;20174;-91
2023/10/02 06:56:48;;;;;;;21.33;9.35;;;;;;;;;;6092886;23;20170;-92
2023/10/02 06:59:54;;;;;;;22.85;9.63;;;;;;;;;;6095033;23;20159;-89
2023/10/02 07:03:03;;;;;;;22.30;9.23;;;;;;;;;;6094255;23;20190;-89
2023/10/02 07:06:08;;;;;;;22.35;9.30;;;;;;;;;;6093762;23;20269;-90
2023/10/02 07:09:14;;;;;;;23.25;8.75;;;;;;;;;;6092014;23;20283;-90
2023/10/02 07:12:20;;;;;;;24.05;9.77;;;;;;;;;;6092013;23;20284;-90
2023/10/02 07:15:26;;;;;;;25.40;9.98;;;;;;;;;;6093261;23;20599;-91
2023/10/02 07:18:36;;;;;;;16.65;8.20;;;;;;;;;;6093931;23;20731;-91
2023/10/02 07:21:42;;;;;;;23.70;8.55;;;;;;;;;;6093916;23;20234;-92
2023/10/02 07:24:48;;;;;;;22.55;9.15;;;;;;;;;;6093333;23;20166;-89
2023/10/02 07:27:57;;;;;;;19.05;8.13;;;;;;;;;;6093431;23;20174;-88
2023/10/02 07:31:03;;;;;;;20.20;9.25;;;;;;;;;;6094003;23;20526;-90
2023/10/02 07:34:08;;;;;;;19.58;9.20;;;;;;;;;;6091960;23;20174;-91
2023/10/02 07:37:16;;;;;;;21.63;8.95;;;;;;;;;;6098225;23;20174;-90
2023/10/02 07:40:22;;;;;;;24.40;8.30;;;;;;;;;;6132431;23;20188;-90
2023/10/02 07:43:31;;;;;;;23.15;9.50;;;;;;;;;;6096816;23;20243;-92
2023/10/02 07:46:38;;;;;;;20.52;9.05;;;;;;;;;;6096696;23;20571;-91
2023/10/02 07:49:45;;;;;;;19.33;8.73;;;;;;;;;;6094653;23;20177;-91
2023/10/02 07:52:58;;;;;;;19.55;8.38;;;;;;;;;;6093963;23;20263;-90
2023/10/02 07:56:08;;;;;;;19.40;8.77;;;;;;;;;;6092016;23;20174;-88
2023/10/02 07:59:18;;;;;;;23.48;9.25;;;;;;;;;;6098592;23;20158;-90
2023/10/02 08:02:23;;;;;;;21.77;8.77;;;;;;;;;;6095855;23;20178;-92
2023/10/02 08:05:28;;;;;;;23.02;9.07;;;;;;;;;;6095408;23;20628;-90
2023/10/02 08:08:34;;;;;;;18.98;8.02;;;;;;;;;;6098348;23;20157;-91
2023/10/02 08:11:49;;;;;;;25.35;8.65;;;;;;;;;;6092728;23;20665;-88
2023/10/02 08:14:58;;;;;;;17.02;7.70;;;;;;;;;;6093805;23;20174;-92
2023/10/02 08:18:16;;;;;;;24.85;7.93;;;;;;;;;;6093288;23;20629;-90
2023/10/02 08:21:33;;;;;;;20.77;7.93;;;;;;;;;;6094327;23;20182;-91
2023/10/02 08:24:38;;;;;;;23.80;8.55;;;;;;;;;;6098386;23;20637;-92
2023/10/02 08:27:44;;;;;;;18.30;7.63;;;;;;;;;;6093725;23;20182;-91
2023/10/02 08:30:59;;;;;;;19.38;7.55;;;;;;;;;;6092283;23;20197;-91
2023/10/02 08:34:09;;;;;;;22.48;8.18;;;;;;;;;;6094277;23;20237;-92
2023/10/02 08:40:39;;;;;;;18.63;8.00;;;;;;;;;;6094423;23;20185;-90
2023/10/02 08:43:45;;;;;;;22.38;8.68;;;;;;;;;;6112844;23;20618;-91
2023/10/02 08:47:01;;;;;;;20.95;9.13;;;;;;;;;;6097476;23;20174;-89
2023/10/02 08:50:07;;;;;;;18.35;7.65;;;;;;;;;;6094785;23;20217;-91
2023/10/02 08:53:19;;;;;;;23.35;8.63;;;;;;;;;;6096721;23;20256;-90
2023/10/02 08:56:37;;;;;;;22.05;7.57;;;;;;;;;;6094227;23;20170;-90
2023/10/02 08:59:43;;;;;;;26.17;8.88;;;;;;;;;;6094504;23;20182;-92
2023/10/02 09:02:54;;;;;;;21.58;7.95;;;;;;;;;;6092620;23;20174;-92
2023/10/02 09:06:25;;;;;;;19.52;8.38;;;;;;;;;;6093928;23;20158;-88
2023/10/02 09:09:36;;;;;;;19.42;7.88;;;;;;;;;;6095421;23;20158;-89
2023/10/02 09:12:50;;;;;;;22.55;8.75;;;;;;;;;;6094812;23;20202;-90
2023/10/02 09:15:54;;;;;;;22.38;7.88;;;;;;;;;;6093855;23;20707;-88
2023/10/02 09:19:28;;;;;;;24.83;8.05;;;;;;;;;;6091015;23;20176;-91
2023/10/02 09:22:37;;;;;;;25.60;8.57;;;;;;;;;;6094482;23;20169;-88
2023/10/02 09:26:16;;;;;;;21.45;7.75;;;;;;;;;;6095979;23;20174;-91
2023/10/02 09:29:22;;;;;;;24.17;8.70;;;;;;;;;;6091806;23;20190;-90
2023/10/02 09:32:30;;;;;;;22.02;7.68;;;;;;;;;;6092302;23;20198;-90
2023/10/02 09:35:43;;;;;;;20.50;7.25;;;;;;;;;;6093567;23;20170;-91
2023/10/02 09:38:49;;;;;;;24.38;7.50;;;;;;;;;;6093740;23;20170;-91
2023/10/02 09:42:00;;;;;;;26.58;9.38;;;;;;;;;;6094282;23;20173;-91
2023/10/02 09:45:08;;;;;;;25.50;9.05;;;;;;;;;;6093575;23;20182;-89
2023/10/02 09:48:46;;;;;;;29.35;9.05;;;;;;;;;;6094399;23;20178;-90
2023/10/02 09:52:09;;;;;;;25.38;8.93;;;;;;;;;;6092685;23;20190;-89
2023/10/02 09:55:18;;;;;;;25.08;8.05;;;;;;;;;;6092829;23;20173;-90
2023/10/02 09:58:27;;;;;;;25.77;8.45;;;;;;;;;;6092767;23;20173;-91
2023/10/02 10:01:36;;;;;;;21.45;8.13;;;;;;;;;;6094016;23;20249;-89
2023/10/02 10:05:00;;;;;;;22.48;8.52;;;;;;;;;;6093274;23;20218;-91
2023/10/02 10:08:29;;;;;;;21.48;7.57;;;;;;;;;;6094235;23;20180;-90
2023/10/02 10:11:34;;;;;;;21.75;8.07;;;;;;;;;;6092136;23;20201;-92
2023/10/02 10:14:41;;;;;;;27.55;8.57;;;;;;;;;;6093981;23;20174;-90
2023/10/02 10:21:34;;;;;;;26.38;8.40;;;;;;;;;;6096327;23;20198;-91
2023/10/02 10:24:56;;;;;;;21.05;7.93;;;;;;;;;;6093566;23;20170;-90
2023/10/02 10:28:05;;;;;;;27.60;8.32;;;;;;;;;;6092867;23;20213;-86
2023/10/02 10:31:09;;;;;;;19.50;7.50;;;;;;;;;;6093992;23;20178;-92
2023/10/02 10:34:39;;;;;;;23.52;8.77;;;;;;;;;;6094677;23;20298;-92
2023/10/02 10:37:46;;;;;;;22.70;8.60;;;;;;;;;;6096916;23;20177;-91
2023/10/02 10:40:54;;;;;;;26.58;8.75;;;;;;;;;;6097539;23;20197;-91
2023/10/02 10:44:06;;;;;;;25.52;8.55;;;;;;;;;;6093211;23;20214;-93
2023/10/02 10:47:14;;;;;;;22.83;8.25;;;;;;;;;;6093662;23;20510;-91
2023/10/02 10:50:29;;;;;;;20.23;7.65;;;;;;;;;;6093687;23;20198;-92
2023/10/02 10:53:41;;;;;;;22.02;8.20;;;;;;;;;;6091396;23;20215;-93
2023/10/02 10:56:47;;;;;;;24.52;7.97;;;;;;;;;;6092912;23;20242;-94
2023/10/02 11:00:23;;;;;;;23.85;8.07;;;;;;;;;;6093472;23;20190;-92
2023/10/02 11:03:30;;;;;;;20.40;8.48;;;;;;;;;;6107853;23;20174;-91
2023/10/02 11:06:41;;;;;;;20.98;8.05;;;;;;;;;;6093824;23;20218;-92
2023/10/02 11:10:14;;;;;;;25.23;8.75;;;;;;;;;;6093312;23;20173;-90
2023/10/02 11:13:24;;;;;;;26.15;7.90;;;;;;;;;;6092967;23;20194;-91
2023/10/02 11:16:31;;;;;;;20.88;7.93;;;;;;;;;;6091978;23;20258;-90
2023/10/02 11:19:46;;;;;;;23.10;7.40;;;;;;;;;;6092895;23;20170;-89
2023/10/02 11:22:52;;;;;;;20.42;8.05;;;;;;;;;;6093487;23;20174;-89
2023/10/02 11:25:58;;;;;;;19.13;7.55;;;;;;;;;;6092904;23;20632;-90
2023/10/02 11:29:25;;;;;;;21.27;8.18;;;;;;;;;;6092572;23;20254;-91
2023/10/02 11:32:53;;;;;;;22.42;7.78;;;;;;;;;;6094807;23;20254;-92
2023/10/02 11:35:59;;;;;;;24.27;7.43;;;;;;;;;;6092754;23;20620;-91
2023/10/02 11:39:09;;;;;;;19.45;7.22;;;;;;;;;;6094744;23;20165;-90
2023/10/02 11:42:16;;;;;;;19.02;7.03;;;;;;;;;;6095941;23;20213;-91
2023/10/02 11:45:22;;;;;;;18.75;7.10;;;;;;;;;;6093299;23;20174;-90
2023/10/02 11:48:28;;;;;;;19.88;7.22;;;;;;;;;;6090900;23;20519;-91
2023/10/02 11:51:33;;;;;;;19.80;7.00;;;;;;;;;;6092694;23;20174;-91
2023/10/02 11:54:39;;;;;;;15.68;6.88;;;;;;;;;;6095391;23;20162;-91
2023/10/02 11:57:45;;;;;;;18.50;6.47;;;;;;;;;;6093052;23;20173;-92
2023/10/02 12:00:51;;;;;;;20.45;6.85;;;;;;;;;;6091359;23;20244;-91
2023/10/02 12:03:58;;;;;;;19.40;7.35;;;;;;;;;;6095051;23;20174;-92
2023/10/02 12:07:05;;;;;;;19.80;6.53;;;;;;;;;;6098907;23;20565;-91
2023/10/02 12:13:30;;;;;;;16.88;6.07;;;;;;;;;;6094595;23;20198;-91
2023/10/02 12:16:38;;;;;;;17.73;5.95;;;;;;;;;;6094288;23;20503;-89
2023/10/02 12:19:51;;;;;;;20.17;6.82;;;;;;;;;;6094226;23;20173;-91
2023/10/02 12:22:57;;;;;;;16.13;6.57;;;;;;;;;;6095990;23;20626;-90
2023/10/02 12:26:04;;;;;;;16.67;6.25;;;;;;;;;;6094094;23;20179;-93
2023/10/02 12:29:13;;;;;;;16.48;6.57;;;;;;;;;;6094218;23;20238;-91
2023/10/02 12:32:19;;;;;;;19.65;6.32;;;;;;;;;;6093905;23;20202;-90
2023/10/02 12:35:27;;;;;;;18.88;6.22;;;;;;;;;;6094786;23;20218;-91
2023/10/02 12:38:33;;;;;;;18.40;6.75;;;;;;;;;;6093498;23;20226;-88
2023/10/02 12:41:40;;;;;;;21.65;6.97;;;;;;;;;;6094738;23;20177;-91
2023/10/02 12:44:46;;;;;;;17.25;6.22;;;;;;;;;;6093838;23;20170;-91
2023/10/02 12:47:52;;;;;;;15.82;6.03;;;;;;;;;;6094805;23;20170;-89
2023/10/02 12:50:58;;;;;;;15.85;5.60;;;;;;;;;;6097617;23;20183;-89
2023/10/02 12:54:04;;;;;;;14.10;5.80;;;;;;;;;;6095633;23;20235;-90
2023/10/02 12:57:11;;;;;;;15.93;5.70;;;;;;;;;;6094965;23;20216;-91
2023/10/02 13:00:17;;;;;;;17.77;6.00;;;;;;;;;;6095074;23;20146;-90
2023/10/02 13:03:24;;;;;;;14.85;5.25;;;;;;;;;;6094531;23;20169;-90
2023/10/02 13:06:32;;;;;;;16.48;5.70;;;;;;;;;;6096652;23;20169;-91
2023/10/02 13:09:40;;;;;;;13.68;5.20;;;;;;;;;;6096253;23;20609;-89
2023/10/02 13:12:45;;;;;;;12.70;5.22;;;;;;;;;;6129436;23;20198;-90
2023/10/02 13:15:51;;;;;;;13.52;5.05;;;;;;;;;;6094282;23;20149;-91
2023/10/02 13:18:56;;;;;;;13.93;5.55;;;;;;;;;;6094260;23;20170;-90
2023/10/02 13:22:03;;;;;;;15.43;5.40;;;;;;;;;;6093222;23;20173;-91
2023/10/02 13:25:11;;;;;;;13.98;5.22;;;;;;;;;;6091635;23;20170;-91
2023/10/02 13:28:16;;;;;;;14.65;5.40;;;;;;;;;;6092923;23;20190;-90
2023/10/02 13:31:24;;;;;;;13.65;5.40;;;;;;;;;;6092067;23;20177;-90
2023/10/02 13:34:31;;;;;;;16.92;5.85;;;;;;;;;;6094280;23;20169;-90
2023/10/02 13:37:38;;;;;;;20.30;5.78;;;;;;;;;;6094092;23;20194;-90
2023/10/02 13:40:43;;;;;;;13.82;5.43;;;;;;;;;;6093162;23;20189;-89
2023/10/02 13:43:48;;;;;;;13.73;5.07;;;;;;;;;;6093719;23;20154;-92
2023/10/02 13:46:59;;;;;;;16.50;5.95;;;;;;;;;;6092849;23;20225;-93
2023/10/02 13:50:05;;;;;;;13.43;6.10;;;;;;;;;;6090760;23;20168;-92
2023/10/02 13:53:12;;;;;;;13.95;6.20;;;;;;;;;;6091205;23;20197;-91
2023/10/02 13:56:20;;;;;;;13.80;6.40;;;;;;;;;;6091810;23;20207;-91
2023/10/02 13:59:25;;;;;;;12.57;5.70;;;;;;;;;;6091747;23;20169;-92
2023/10/02 14:02:30;;;;;;;14.05;6.28;;;;;;;;;;6092411;23;20243;-91
2023/10/02 14:05:39;;;;;;;13.43;6.18;;;;;;;;;;6092901;23;20168;-91
2023/10/02 14:08:46;;;;;;;12.80;6.28;;;;;;;;;;6094887;23;20174;-90
2023/10/02 14:11:52;;;;;;;13.40;6.00;;;;;;;;;;6090568;23;20526;-90
2023/10/02 14:14:58;;;;;;;14.52;5.93;;;;;;;;;;6092804;23;20157;-91
2023/10/02 14:18:04;;;;;;;15.27;6.57;;;;;;;;;;6096015;23;20476;-91
2023/10/02 14:21:14;;;;;;;13.02;5.63;;;;;;;;;;6095685;23;20197;-90
2023/10/02 14:24:21;;;;;;;15.95;6.35;;;;;;;;;;6093900;23;20173;-91
2023/10/02 14:27:26;;;;;;;16.35;7.07;;;;;;;;;;6093138;23;20198;-90
2023/10/02 14:30:32;;;;;;;15.05;6.35;;;;;;;;;;6093482;23;20213;-90
2023/10/02 14:33:40;;;;;;;16.58;6.75;;;;;;;;;;6069458;23;20198;-90
2023/10/02 14:36:45;;;;;;;17.05;6.90;;;;;;;;;;6094473;23;20164;-91
2023/10/02 14:39:54;;;;;;;17.55;6.47;;;;;;;;;;6094926;23;20180;-88
2023/10/02 14:43:00;;;;;;;13.40;6.15;;;;;;;;;;6098423;23;20173;-89
2023/10/02 14:46:06;;;;;;;15.45;6.85;;;;;;;;;;6095223;23;20156;-91
2023/10/02 14:49:11;;;;;;;15.75;7.03;;;;;;;;;;6097099;23;20213;-91
2023/10/02 14:55:38;;;;;;;15.10;6.45;;;;;;;;;;6092949;23;20173;-89
2023/10/02 14:58:47;;;;;;;14.30;6.32;;;;;;;;;;6093979;23;20174;-89
2023/10/02 15:01:54;;;;;;;16.10;6.55;;;;;;;;;;6089316;23;20178;-91
2023/10/02 15:04:59;;;;;;;17.30;6.43;;;;;;;;;;6092411;23;20227;-91
2023/10/02 15:08:07;;;;;;;14.45;6.53;;;;;;;;;;6093690;23;20299;-91
2023/10/02 15:11:19;;;;;;;18.63;6.28;;;;;;;;;;6092371;23;20230;-88
2023/10/02 15:14:26;;;;;;;17.92;6.30;;;;;;;;;;6096540;23;20193;-90
2023/10/02 15:17:31;;;;;;;16.63;6.65;;;;;;;;;;6095854;23;20173;-91
2023/10/02 15:20:37;;;;;;;17.38;5.72;;;;;;;;;;6092698;23;20169;-90
2023/10/02 15:23:42;;;;;;;23.60;6.50;;;;;;;;;;6094257;23;20169;-92
2023/10/02 15:26:49;;;;;;;13.20;5.97;;;;;;;;;;6095302;23;20177;-90
2023/10/02 15:29:55;;;;;;;18.63;6.47;;;;;;;;;;6094451;23;20236;-88
2023/10/02 15:33:00;;;;;;;22.10;6.40;;;;;;;;;;6093910;23;20648;-93
2023/10/02 15:36:06;;;;;;;17.33;7.20;;;;;;;;;;6096963;23;20177;-89
2023/10/02 15:39:14;;;;;;;15.93;6.22;;;;;;;;;;6076417;23;20161;-89
2023/10/02 15:42:25;;;;;;;20.70;7.28;;;;;;;;;;6098663;23;20149;-92
2023/10/02 15:45:35;;;;;;;28.20;8.13;;;;;;;;;;6096761;23;20206;-94
2023/10/02 15:48:42;;;;;;;20.98;7.90;;;;;;;;;;6098122;23;20186;-96
2023/10/02 15:51:50;;;;;;;24.05;7.88;;;;;;;;;;6097569;23;20170;-91
2023/10/02 15:55:00;;;;;;;21.45;7.30;;;;;;;;;;6096915;23;20230;-95
2023/10/02 15:58:11;;;;;;;19.17;6.90;;;;;;;;;;6096602;23;20189;-92
2023/10/02 16:01:19;;;;;;;25.05;7.25;;;;;;;;;;6096235;23;20174;-93
2023/10/02 16:04:25;;;;;;;20.75;6.70;;;;;;;;;;6096338;23;20178;-93
2023/10/02 16:07:36;;;;;;;26.38;7.05;;;;;;;;;;6099277;23;20215;-93
2023/10/02 16:10:42;;;;;;;25.83;7.50;;;;;;;;;;6099381;23;20202;-92
2023/10/02 16:13:53;;;;;;;28.02;9.10;;;;;;;;;;6098443;23;20287;-90
2023/10/02 16:16:59;;;;;;;20.42;7.70;;;;;;;;;;6099080;23;20254;-93
2023/10/02 16:20:05;;;;;;;21.60;7.25;;;;;;;;;;6099639;23;20215;-91
2023/10/02 16:23:10;;;;;;;22.70;7.28;;;;;;;;;;6097730;23;20185;-92
2023/10/02 16:26:16;;;;;;;19.10;6.70;;;;;;;;;;6099626;23;20170;-89
2023/10/02 16:29:24;;;;;;;22.40;7.80;;;;;;;;;;6099082;23;20192;-89
2023/10/02 16:32:30;;;;;;;24.42;7.65;;;;;;;;;;6099535;23;20178;-93
2023/10/02 16:35:36;;;;;;;18.90;6.80;;;;;;;;;;6101575;23;20177;-91
2023/10/02 16:38:42;;;;;;;22.70;6.85;;;;;;;;;;6100064;23;20171;-90
2023/10/02 16:41:48;;;;;;;23.65;7.07;;;;;;;;;;6098176;23;20173;-92
2023/10/02 16:44:57;;;;;;;27.70;7.95;;;;;;;;;;6098577;23;20213;-91
2023/10/02 16:48:14;;;;;;;25.25;7.82;;;;;;;;;;6101893;23;20157;-91
2023/10/02 16:51:19;;;;;;;22.10;7.60;;;;;;;;;;6098945;23;20182;-93
2023/10/02 16:54:24;;;;;;;21.05;6.65;;;;;;;;;;6097834;23;20190;-93
2023/10/02 16:57:32;;;;;;;21.70;7.30;;;;;;;;;;6096153;23;20173;-88
2023/10/02 17:00:41;;;;;;;23.90;7.85;;;;;;;;;;6096063;23;20181;-91
2023/10/02 17:03:46;;;;;;;25.05;8.23;;;;;;;;;;6095153;23;20226;-89
2023/10/02 17:06:51;;;;;;;22.58;7.80;;;;;;;;;;6095564;23;20166;-91
2023/10/02 17:09:57;;;;;;;22.90;8.63;;;;;;;;;;6095722;23;20542;-92
2023/10/02 17:13:03;;;;;;;23.92;7.70;;;;;;;;;;6095109;23;20185;-91
2023/10/02 17:16:12;;;;;;;25.98;8.88;;;;;;;;;;6095464;23;20169;-90
2023/10/02 17:19:17;;;;;;;25.73;8.23;;;;;;;;;;6095459;23;20493;-93
2023/10/02 17:22:22;;;;;;;23.10;8.48;;;;;;;;;;6095464;23;20170;-92
2023/10/02 17:25:28;;;;;;;24.08;8.63;;;;;;;;;;6095916;23;20245;-93
2023/10/02 17:28:34;;;;;;;24.67;8.45;;;;;;;;;;6095122;23;20492;-90
2023/10/02 17:31:41;;;;;;;26.35;8.13;;;;;;;;;;6094859;23;20173;-92
2023/10/02 17:34:46;;;;;;;20.85;8.32;;;;;;;;;;6096780;23;20196;-91
2023/10/02 17:37:53;;;;;;;31.55;9.95;;;;;;;;;;6095132;23;20217;-92
2023/10/02 17:40:59;;;;;;;26.23;9.73;;;;;;;;;;6113041;23;20178;-91
2023/10/02 17:44:05;;;;;;;27.65;9.60;;;;;;;;;;6095237;23;20194;-93
2023/10/02 17:47:14;;;;;;;27.77;9.48;;;;;;;;;;6094371;23;20214;-92
2023/10/02 17:50:20;;;;;;;28.10;9.25;;;;;;;;;;6096988;23;20157;-92
2023/10/02 17:53:25;;;;;;;26.33;9.50;;;;;;;;;;6097869;23;20218;-90
2023/10/02 17:56:31;;;;;;;26.58;8.75;;;;;;;;;;6094954;23;20166;-90
2023/10/02 17:59:38;;;;;;;26.20;9.10;;;;;;;;;;6096289;23;20177;-87
2023/10/02 18:02:45;;;;;;;30.17;10.23;;;;;;;;;;6099346;23;20175;-90
2023/10/02 18:05:51;;;;;;;26.80;10.15;;;;;;;;;;6094516;23;20179;-90
2023/10/02 18:08:56;;;;;;;24.80;9.25;;;;;;;;;;6097009;23;20166;-92
2023/10/02 18:12:01;;;;;;;23.50;8.95;;;;;;;;;;6095773;23;20625;-91
2023/10/02 18:15:12;;;;;;;23.70;9.05;;;;;;;;;;6095249;23;20204;-88
2023/10/02 18:18:21;;;;;;;22.77;8.98;;;;;;;;;;6097731;23;20222;-91
2023/10/02 18:21:27;;;;;;;26.67;9.43;;;;;;;;;;6097233;23;20249;-88
2023/10/02 18:24:32;;;;;;;34.47;11.80;;;;;;;;;;6097784;23;20162;-90
2023/10/02 18:27:38;;;;;;;34.72;11.88;;;;;;;;;;6095286;23;20223;-93
2023/10/02 18:30:44;;;;;;;28.00;9.07;;;;;;;;;;6095280;23;20165;-92
2023/10/02 18:33:52;;;;;;;27.33;9.00;;;;;;;;;;6099161;23;20193;-90
2023/10/02 18:36:59;;;;;;;29.10;11.13;;;;;;;;;;6096678;23;20239;-89
2023/10/02 18:40:07;;;;;;;31.75;11.20;;;;;;;;;;6113478;23;20178;-91
2023/10/02 18:43:15;;;;;;;23.80;9.52;;;;;;;;;;6131414;23;20170;-91
2023/10/02 18:46:21;;;;;;;30.85;9.43;;;;;;;;;;6096232;23;20199;-91
2023/10/02 18:49:28;;;;;;;29.08;9.55;;;;;;;;;;6098992;23;20219;-89
2023/10/02 18:52:36;;;;;;;32.00;11.07;;;;;;;;;;6098267;23;20174;-88
2023/10/02 18:55:42;;;;;;;34.28;10.60;;;;;;;;;;6099232;23;20174;-91
2023/10/02 18:58:48;;;;;;;24.45;9.38;;;;;;;;;;6099059;23;20225;-88